createdAt,value
2022-11-29T00:01:27.218Z,32.53
2022-11-29T00:03:55.852Z,30.93
2022-11-29T00:06:27.644Z,33.00
2022-11-29T00:08:56.878Z,35.80
2022-11-29T00:11:43.896Z,34.90
2022-11-29T00:14:13.666Z,34.83
2022-11-29T00:16:41.701Z,35.07
2022-11-29T00:19:10.555Z,31.97
2022-11-29T00:21:40.137Z,34.57
2022-11-29T00:24:10.039Z,30.73
2022-11-29T00:26:38.080Z,32.80
2022-11-29T00:29:06.461Z,29.70
2022-11-29T00:31:35.107Z,34.03
2022-11-29T00:34:04.973Z,34.43
2022-11-29T00:36:32.840Z,32.63
2022-11-29T00:39:02.585Z,28.57
2022-11-29T00:41:30.509Z,33.27
2022-11-29T00:43:58.575Z,31.00
2022-11-29T00:46:26.772Z,31.43
2022-11-29T00:48:54.737Z,32.70
2022-11-29T00:51:22.663Z,30.73
2022-11-29T00:53:50.626Z,31.77
2022-11-29T00:56:19.922Z,34.60
2022-11-29T00:58:49.222Z,37.43
2022-11-29T01:01:17.787Z,33.23
2022-11-29T01:03:45.829Z,31.63
2022-11-29T01:06:15.522Z,32.17
2022-11-29T01:08:47.053Z,30.27
2022-11-29T01:11:18.501Z,31.60
2022-11-29T01:13:48.995Z,34.27
2022-11-29T01:16:17.804Z,33.20
2022-11-29T01:18:46.466Z,30.93
2022-11-29T01:21:16.107Z,35.37
2022-11-29T01:23:45.089Z,29.93
2022-11-29T01:26:15.118Z,31.07
2022-11-29T01:28:43.625Z,31.03
2022-11-29T01:31:16.907Z,33.27
2022-11-29T01:33:44.972Z,29.40
2022-11-29T01:36:14.476Z,31.90
2022-11-29T01:38:43.531Z,30.53
2022-11-29T01:41:14.663Z,32.37
2022-11-29T01:43:57.343Z,32.60
2022-11-29T01:46:30.893Z,36.43
2022-11-29T01:49:03.140Z,33.77
2022-11-29T01:51:32.174Z,37.90
2022-11-29T01:54:00.167Z,34.47
2022-11-29T01:56:30.021Z,33.83
2022-11-29T01:58:58.174Z,34.70
2022-11-29T02:01:28.532Z,35.43
2022-11-29T02:03:56.754Z,35.57
2022-11-29T02:06:25.322Z,29.87
2022-11-29T02:08:53.243Z,34.97
2022-11-29T02:11:49.717Z,34.80
2022-11-29T02:14:33.474Z,31.10
2022-11-29T02:17:11.494Z,33.43
2022-11-29T02:20:05.655Z,33.73
2022-11-29T02:22:39.299Z,30.47
2022-11-29T02:25:37.499Z,31.97
2022-11-29T02:28:43.252Z,37.60
2022-11-29T02:31:44.655Z,32.57
2022-11-29T02:34:30.532Z,31.07
2022-11-29T02:37:18.749Z,30.90
2022-11-29T02:39:58.814Z,32.43
2022-11-29T02:42:56.593Z,36.57
2022-11-29T02:45:43.866Z,35.27
2022-11-29T02:48:29.068Z,31.60
2022-11-29T02:51:05.867Z,36.20
2022-11-29T02:53:39.253Z,35.47
2022-11-29T02:56:14.613Z,35.50
2022-11-29T02:58:51.245Z,37.90
2022-11-29T03:01:25.438Z,36.20
2022-11-29T03:04:01.054Z,40.63
2022-11-29T03:06:39.916Z,38.80
2022-11-29T03:09:14.851Z,38.70
2022-11-29T03:11:49.476Z,37.17
2022-11-29T03:14:25.128Z,35.20
2022-11-29T03:17:02.645Z,33.97
2022-11-29T03:19:44.320Z,39.67
2022-11-29T03:22:23.269Z,37.03
2022-11-29T03:24:56.492Z,40.57
2022-11-29T03:27:35.945Z,39.33
2022-11-29T03:30:09.600Z,37.10
2022-11-29T03:32:46.178Z,39.43
2022-11-29T03:35:19.780Z,44.93
2022-11-29T03:37:56.367Z,43.97
2022-11-29T03:40:31.343Z,40.73
2022-11-29T03:43:06.948Z,43.60
2022-11-29T03:45:43.671Z,42.47
2022-11-29T03:48:16.709Z,39.37
2022-11-29T03:50:51.993Z,37.37
2022-11-29T03:53:29.801Z,36.53
2022-11-29T03:56:01.564Z,38.50
2022-11-29T03:58:49.993Z,36.47
2022-11-29T04:01:47.204Z,34.03
2022-11-29T04:04:55.532Z,36.30
2022-11-29T04:07:44.481Z,38.00
2022-11-29T04:10:31.962Z,33.27
2022-11-29T04:13:31.200Z,33.80
2022-11-29T04:16:38.509Z,37.10
2022-11-29T04:19:24.813Z,37.83
2022-11-29T04:22:24.833Z,34.40
2022-11-29T04:25:23.132Z,32.53
2022-11-29T04:28:24.320Z,31.77
2022-11-29T04:31:01.288Z,33.43
2022-11-29T04:33:48.450Z,34.13
2022-11-29T04:36:56.937Z,32.73
2022-11-29T04:39:50.028Z,34.97
2022-11-29T04:42:44.229Z,30.67
2022-11-29T04:45:40.709Z,32.03
2022-11-29T04:48:26.795Z,30.07
2022-11-29T04:51:04.178Z,28.63
2022-11-29T04:53:43.223Z,27.77
2022-11-29T04:56:16.252Z,27.10
2022-11-29T04:58:52.374Z,30.33
2022-11-29T05:01:28.967Z,30.97
2022-11-29T05:04:03.818Z,29.07
2022-11-29T05:06:43.189Z,28.50
2022-11-29T05:09:20.145Z,29.70
2022-11-29T05:12:00.588Z,27.50
2022-11-29T05:14:38.728Z,28.40
2022-11-29T05:17:26.664Z,26.87
2022-11-29T05:20:04.298Z,29.63
2022-11-29T05:22:40.545Z,29.50
2022-11-29T05:25:32.598Z,28.80
2022-11-29T05:28:10.418Z,29.57
2022-11-29T05:31:05.263Z,29.83
2022-11-29T05:33:56.252Z,25.60
2022-11-29T05:36:38.657Z,27.60
2022-11-29T05:39:24.148Z,26.93
2022-11-29T05:42:10.748Z,27.27
2022-11-29T05:44:43.435Z,25.37
2022-11-29T05:47:16.977Z,25.47
2022-11-29T05:49:59.307Z,26.60
2022-11-29T05:52:37.753Z,26.57
2022-11-29T05:55:18.781Z,26.60
2022-11-29T05:57:54.659Z,24.73
2022-11-29T06:00:23.126Z,25.37
2022-11-29T06:03:00.002Z,23.87
2022-11-29T06:05:37.775Z,26.83
2022-11-29T06:08:11.639Z,26.57
2022-11-29T06:10:41.417Z,30.87
2022-11-29T06:13:22.981Z,25.40
2022-11-29T06:16:36.890Z,23.47
2022-11-29T06:19:34.633Z,25.53
2022-11-29T06:22:20.841Z,28.60
2022-11-29T06:25:06.194Z,27.73
2022-11-29T06:27:53.764Z,25.37
2022-11-29T06:30:24.313Z,27.57
2022-11-29T06:33:01.266Z,28.70
2022-11-29T06:35:40.415Z,28.20
2022-11-29T06:38:18.907Z,26.13
2022-11-29T06:40:48.041Z,26.30
2022-11-29T06:43:16.943Z,29.50
2022-11-29T06:45:50.109Z,27.43
2022-11-29T06:48:24.725Z,25.70
2022-11-29T06:50:58.857Z,25.53
2022-11-29T06:53:38.009Z,27.90
2022-11-29T06:56:14.941Z,26.07
2022-11-29T06:58:50.004Z,28.50
2022-11-29T07:01:28.560Z,27.00
2022-11-29T07:04:09.637Z,28.07
2022-11-29T07:06:37.719Z,32.63
2022-11-29T07:09:14.311Z,38.57
2022-11-29T07:11:43.309Z,31.50
2022-11-29T07:14:11.711Z,34.57
2022-11-29T07:16:47.646Z,35.47
2022-11-29T07:19:25.770Z,38.83
2022-11-29T07:22:05.175Z,31.03
2022-11-29T07:24:48.895Z,29.43
2022-11-29T07:27:21.092Z,38.67
2022-11-29T07:30:05.623Z,40.47
2022-11-29T07:32:48.859Z,43.47
2022-11-29T07:35:25.408Z,43.63
2022-11-29T07:38:02.291Z,45.73
2022-11-29T07:40:38.158Z,47.17
2022-11-29T07:43:18.762Z,57.00
2022-11-29T07:45:47.187Z,53.97
2022-11-29T07:48:17.383Z,61.33
2022-11-29T07:50:48.321Z,47.60
2022-11-29T07:53:18.754Z,48.77
2022-11-29T07:55:48.626Z,75.87
2022-11-29T07:58:18.531Z,89.63
2022-11-29T08:00:46.991Z,66.57
2022-11-29T08:03:15.204Z,112.40
2022-11-29T08:05:47.376Z,68.03
2022-11-29T08:08:15.806Z,65.97
2022-11-29T08:10:46.643Z,61.67
2022-11-29T08:13:16.089Z,64.00
2022-11-29T08:15:48.262Z,70.10
2022-11-29T08:18:16.934Z,55.57
2022-11-29T08:20:46.145Z,81.70
2022-11-29T08:23:14.963Z,68.23
2022-11-29T08:25:43.321Z,71.50
2022-11-29T08:28:11.359Z,60.63
2022-11-29T08:30:40.743Z,64.33
2022-11-29T08:33:09.910Z,54.90
2022-11-29T08:35:39.059Z,57.33
2022-11-29T08:38:07.076Z,68.40
2022-11-29T08:40:35.887Z,80.83
2022-11-29T08:43:03.797Z,72.83
2022-11-29T08:45:31.759Z,59.57
2022-11-29T08:48:01.487Z,73.83
2022-11-29T08:50:29.554Z,88.17
2022-11-29T08:53:17.211Z,94.93
2022-11-29T08:55:46.602Z,94.50
2022-11-29T08:58:16.440Z,84.00
2022-11-29T09:00:46.752Z,132.90
2022-11-29T09:03:33.297Z,110.40
2022-11-29T09:06:12.009Z,78.20
2022-11-29T09:08:40.954Z,98.17
2022-11-29T09:11:13.237Z,92.27
2022-11-29T09:13:41.882Z,77.10
2022-11-29T09:16:11.924Z,69.57
2022-11-29T09:18:45.960Z,78.90
2022-11-29T09:21:17.961Z,67.63
2022-11-29T09:23:47.482Z,75.73
2022-11-29T09:26:19.471Z,66.57
2022-11-29T09:28:47.654Z,85.83
2022-11-29T09:31:16.916Z,61.33
2022-11-29T09:33:46.593Z,60.30
2022-11-29T09:36:14.824Z,66.60
2022-11-29T09:38:42.834Z,65.57
2022-11-29T09:41:35.847Z,62.23
2022-11-29T09:44:13.757Z,57.53
2022-11-29T09:46:52.249Z,53.73
2022-11-29T09:49:41.024Z,58.20
2022-11-29T09:52:18.857Z,42.73
2022-11-29T09:54:56.613Z,49.67
2022-11-29T09:57:26.994Z,47.83
2022-11-29T09:59:59.901Z,48.13
2022-11-29T10:02:34.054Z,45.47
2022-11-29T10:05:07.938Z,46.80
2022-11-29T10:07:42.381Z,39.77
2022-11-29T10:10:16.232Z,39.50
2022-11-29T10:12:49.316Z,41.40
2022-11-29T10:15:22.761Z,43.37
2022-11-29T10:17:55.663Z,47.03
2022-11-29T10:20:26.585Z,41.93
2022-11-29T10:22:58.512Z,41.03
2022-11-29T10:25:30.777Z,39.30
2022-11-29T10:27:59.401Z,34.70
2022-11-29T10:30:27.618Z,36.10
2022-11-29T10:33:00.110Z,35.23
2022-11-29T10:35:29.459Z,36.03
2022-11-29T10:40:59.200Z,34.47
2022-11-29T10:43:27.667Z,39.60
2022-11-29T10:45:57.061Z,35.17
2022-11-29T10:48:28.840Z,40.77
2022-11-29T10:50:56.756Z,38.90
2022-11-29T10:53:27.590Z,42.57
2022-11-29T10:56:02.393Z,41.70
2022-11-29T10:58:31.448Z,47.07
2022-11-29T11:01:01.826Z,46.30
2022-11-29T11:03:35.054Z,44.67
2022-11-29T11:06:14.924Z,43.67
2022-11-29T11:08:48.508Z,45.30
2022-11-29T11:11:24.235Z,52.00
2022-11-29T11:14:00.092Z,52.83
2022-11-29T11:16:37.119Z,46.50
2022-11-29T11:19:30.809Z,58.90
2022-11-29T11:22:00.293Z,72.87
2022-11-29T11:24:33.258Z,82.63
2022-11-29T11:27:02.377Z,84.97
2022-11-29T11:29:37.495Z,66.97
2022-11-29T11:32:08.789Z,58.37
2022-11-29T11:34:38.679Z,57.17
2022-11-29T11:37:23.533Z,51.60
2022-11-29T11:39:55.809Z,50.97
2022-11-29T11:42:39.423Z,54.47
2022-11-29T11:45:30.878Z,56.97
2022-11-29T11:48:00.716Z,52.70
2022-11-29T11:50:33.771Z,50.07
2022-11-29T11:53:05.827Z,51.03
2022-11-29T11:55:38.580Z,44.57
2022-11-29T11:58:19.276Z,51.70
2022-11-29T12:01:06.057Z,45.37
2022-11-29T12:03:49.270Z,51.57
2022-11-29T12:06:32.826Z,46.67
2022-11-29T12:09:05.742Z,48.63
2022-11-29T12:11:42.565Z,43.83
2022-11-29T12:14:19.353Z,43.43
2022-11-29T12:16:49.889Z,44.37
2022-11-29T12:19:22.948Z,41.27
2022-11-29T12:21:56.938Z,42.10
2022-11-29T12:24:29.702Z,40.40
2022-11-29T12:27:05.699Z,35.77
2022-11-29T12:29:35.763Z,36.03
2022-11-29T12:32:19.938Z,42.23
2022-11-29T12:35:01.667Z,34.97
2022-11-29T12:37:36.645Z,33.53
2022-11-29T12:40:15.363Z,44.00
2022-11-29T12:42:53.371Z,44.33
2022-11-29T12:45:35.568Z,37.67
2022-11-29T12:48:14.780Z,38.33
2022-11-29T12:50:53.345Z,35.77
2022-11-29T12:53:39.075Z,36.60
2022-11-29T12:56:16.667Z,33.73
2022-11-29T12:59:02.962Z,41.13
2022-11-29T13:01:41.451Z,43.97
2022-11-29T13:04:20.319Z,40.93
2022-11-29T13:06:56.707Z,36.80
2022-11-29T13:10:01.452Z,34.70
2022-11-29T13:12:36.448Z,35.83
2022-11-29T13:15:10.619Z,34.00
2022-11-29T13:17:42.999Z,40.30
2022-11-29T13:20:25.749Z,32.80
2022-11-29T13:22:59.958Z,30.60
2022-11-29T13:25:33.739Z,31.70
2022-11-29T13:28:05.634Z,30.27
2022-11-29T13:30:36.964Z,28.23
2022-11-29T13:33:13.276Z,31.13
2022-11-29T13:35:47.101Z,28.33
2022-11-29T13:38:24.166Z,25.93
2022-11-29T13:41:00.735Z,27.83
2022-11-29T13:43:39.418Z,23.97
2022-11-29T13:46:20.698Z,23.40
2022-11-29T13:48:50.663Z,22.10
2022-11-29T13:51:33.870Z,23.87
2022-11-29T13:54:04.419Z,21.37
2022-11-29T13:56:42.869Z,25.27
2022-11-29T13:59:19.644Z,21.20
2022-11-29T14:01:51.466Z,22.17
2022-11-29T14:04:34.056Z,25.13
2022-11-29T14:07:08.120Z,25.13
2022-11-29T14:09:43.281Z,19.63
2022-11-29T14:12:36.725Z,20.87
2022-11-29T14:15:17.641Z,21.10
2022-11-29T14:17:59.416Z,20.83
2022-11-29T14:20:55.676Z,23.43
2022-11-29T14:23:39.035Z,26.67
2022-11-29T14:26:31.166Z,20.10
2022-11-29T14:29:00.122Z,19.97
2022-11-29T14:31:54.384Z,19.23
2022-11-29T14:34:48.767Z,15.13
2022-11-29T14:37:35.065Z,18.67
2022-11-29T14:40:14.063Z,14.47
2022-11-29T14:42:49.631Z,13.80
2022-11-29T14:45:27.789Z,14.30
2022-11-29T14:47:56.707Z,11.33
2022-11-29T14:50:37.571Z,10.43
2022-11-29T14:53:06.657Z,12.77
2022-11-29T14:55:37.128Z,11.10
2022-11-29T14:58:16.966Z,11.07
2022-11-29T15:01:06.627Z,11.87
2022-11-29T15:03:47.746Z,21.50
2022-11-29T15:06:25.215Z,14.93
2022-11-29T15:09:02.035Z,12.57
2022-11-29T15:11:48.041Z,11.50
2022-11-29T15:14:24.262Z,13.70
2022-11-29T15:17:03.837Z,15.77
2022-11-29T15:19:58.230Z,24.40
2022-11-29T15:22:30.770Z,13.53
2022-11-29T15:25:03.182Z,14.70
2022-11-29T15:27:35.155Z,18.00
2022-11-29T15:30:20.456Z,36.70
2022-11-29T15:32:48.588Z,37.60
2022-11-29T15:35:20.292Z,27.37
2022-11-29T15:37:50.626Z,25.10
2022-11-29T15:40:20.808Z,24.13
2022-11-29T15:43:01.121Z,18.40
2022-11-29T15:45:32.425Z,22.70
2022-11-29T15:48:20.670Z,21.23
2022-11-29T15:50:57.275Z,19.67
2022-11-29T15:53:31.901Z,18.90
2022-11-29T15:56:04.687Z,20.47
2022-11-29T15:58:34.777Z,17.77
2022-11-29T16:01:05.641Z,20.70
2022-11-29T16:03:36.547Z,18.50
2022-11-29T16:06:16.334Z,19.77
2022-11-29T16:08:45.923Z,19.47
2022-11-29T16:11:20.677Z,20.17
2022-11-29T16:14:28.331Z,19.30
2022-11-29T16:16:58.258Z,17.67
2022-11-29T16:19:31.403Z,20.60
2022-11-29T16:22:04.275Z,36.77
2022-11-29T16:24:35.227Z,23.87
2022-11-29T16:27:03.922Z,43.73
2022-11-29T16:29:38.402Z,23.87
2022-11-29T16:32:28.192Z,22.63
2022-11-29T16:34:57.376Z,22.90
2022-11-29T16:37:27.507Z,29.70
2022-11-29T16:40:01.064Z,20.13
2022-11-29T16:42:30.852Z,18.97
2022-11-29T16:45:06.632Z,22.83
2022-11-29T16:47:52.357Z,21.97
2022-11-29T16:50:21.818Z,21.77
2022-11-29T16:52:56.050Z,19.53
2022-11-29T16:55:25.995Z,21.20
2022-11-29T16:57:54.034Z,19.30
2022-11-29T17:00:32.505Z,21.10
2022-11-29T17:03:00.979Z,17.77
2022-11-29T17:05:29.301Z,21.77
2022-11-29T17:07:57.428Z,20.83
2022-11-29T17:10:27.515Z,19.47
2022-11-29T17:12:55.424Z,17.60
2022-11-29T17:15:23.380Z,19.93
2022-11-29T17:17:51.279Z,17.60
2022-11-29T17:20:19.453Z,22.30
2022-11-29T17:22:47.380Z,20.23
2022-11-29T17:25:15.761Z,20.93
2022-11-29T17:27:45.119Z,20.60
2022-11-29T17:30:14.449Z,20.07
2022-11-29T17:32:44.499Z,21.40
2022-11-29T17:35:12.417Z,23.50
2022-11-29T17:37:40.325Z,24.60
2022-11-29T17:40:09.764Z,26.10
2022-11-29T17:42:37.860Z,23.67
2022-11-29T17:45:08.293Z,29.60
2022-11-29T17:47:36.216Z,23.20
2022-11-29T17:50:04.348Z,26.17
2022-11-29T17:52:32.245Z,27.13
2022-11-29T17:55:00.176Z,33.00
2022-11-29T17:57:28.111Z,35.23
2022-11-29T17:59:56.016Z,35.37
2022-11-29T18:02:25.309Z,37.70
2022-11-29T18:05:51.291Z,33.40
2022-11-29T18:08:02.009Z,32.03
2022-11-29T18:10:30.326Z,36.77
2022-11-29T18:13:00.179Z,37.43
2022-11-29T18:15:28.349Z,34.20
2022-11-29T18:17:57.669Z,49.57
2022-11-29T18:20:27.546Z,38.47
2022-11-29T18:22:56.191Z,51.33
2022-11-29T18:25:38.875Z,42.20
2022-11-29T18:28:11.212Z,38.00
2022-11-29T18:30:42.327Z,41.83
2022-11-29T18:33:11.794Z,33.73
2022-11-29T18:35:39.637Z,34.17
2022-11-29T18:38:15.225Z,39.80
2022-11-29T18:40:48.509Z,35.50
2022-11-29T18:43:17.791Z,39.10
2022-11-29T18:45:46.419Z,37.43
2022-11-29T18:48:15.749Z,56.10
2022-11-29T18:50:43.698Z,38.43
2022-11-29T18:53:11.575Z,45.33
2022-11-29T18:55:44.124Z,33.97
2022-11-29T18:58:12.026Z,35.30
2022-11-29T19:00:40.805Z,36.73
2022-11-29T19:03:08.889Z,35.17
2022-11-29T19:05:38.156Z,31.73
2022-11-29T19:08:06.481Z,30.90
2022-11-29T19:10:34.401Z,35.10
2022-11-29T19:13:02.361Z,28.13
2022-11-29T19:15:30.289Z,34.37
2022-11-29T19:17:58.233Z,34.47
2022-11-29T19:20:26.145Z,32.57
2022-11-29T19:23:00.289Z,36.80
2022-11-29T19:25:30.233Z,29.27
2022-11-29T19:27:58.150Z,39.10
2022-11-29T19:30:26.110Z,36.97
2022-11-29T19:32:54.088Z,30.90
2022-11-29T19:35:22.054Z,29.83
2022-11-29T19:37:50.099Z,38.67
2022-11-29T19:40:19.963Z,33.03
2022-11-29T19:42:48.719Z,36.07
2022-11-29T19:45:18.038Z,35.37
2022-11-29T19:47:46.421Z,31.10
2022-11-29T19:50:14.382Z,36.57
2022-11-29T19:52:42.763Z,40.03
2022-11-29T19:55:10.899Z,37.40
2022-11-29T19:57:40.255Z,41.80
2022-11-29T20:00:11.085Z,42.93
2022-11-29T20:02:39.049Z,39.80
2022-11-29T20:05:08.234Z,43.33
2022-11-29T20:07:36.414Z,43.60
2022-11-29T20:10:08.101Z,37.70
2022-11-29T20:12:39.601Z,35.33
2022-11-29T20:15:09.191Z,41.87
2022-11-29T20:17:37.129Z,37.37
2022-11-29T20:20:05.762Z,38.00
2022-11-29T20:22:33.770Z,40.70
2022-11-29T20:25:01.780Z,41.80
2022-11-29T20:27:29.812Z,39.57
2022-11-29T20:29:59.193Z,46.17
2022-11-29T20:32:27.521Z,40.53
2022-11-29T20:34:56.043Z,43.93
2022-11-29T20:37:36.023Z,36.67
2022-11-29T20:40:07.583Z,45.30
2022-11-29T20:43:02.704Z,42.37
2022-11-29T20:45:32.772Z,40.87
2022-11-29T20:48:09.242Z,40.80
2022-11-29T20:50:37.744Z,46.43
2022-11-29T20:53:19.978Z,42.70
2022-11-29T20:55:49.544Z,49.13
2022-11-29T20:58:19.400Z,45.63
2022-11-29T21:00:48.870Z,44.53
2022-11-29T21:03:17.874Z,46.47
2022-11-29T21:05:46.798Z,46.77
2022-11-29T21:08:15.494Z,46.63
2022-11-29T21:10:43.898Z,44.97
2022-11-29T21:13:16.100Z,48.83
2022-11-29T21:15:44.698Z,52.23
2022-11-29T21:18:23.723Z,51.40
2022-11-29T21:21:01.902Z,56.30
2022-11-29T21:23:39.119Z,64.17
2022-11-29T21:26:11.929Z,55.23
2022-11-29T21:28:47.754Z,54.03
2022-11-29T21:31:20.335Z,59.10
2022-11-29T21:33:51.044Z,51.87
2022-11-29T21:36:19.074Z,58.23
2022-11-29T21:38:53.917Z,50.03
2022-11-29T21:41:24.277Z,53.30
2022-11-29T21:44:06.523Z,45.63
2022-11-29T21:46:39.588Z,57.93
2022-11-29T21:49:09.154Z,67.77
2022-11-29T21:51:37.607Z,56.87
2022-11-29T21:54:06.030Z,67.57
2022-11-29T21:56:34.352Z,61.83
2022-11-29T21:59:02.358Z,61.50
2022-11-29T22:01:30.484Z,61.90
2022-11-29T22:03:58.648Z,64.27
2022-11-29T22:06:31.658Z,63.73
2022-11-29T22:09:00.057Z,64.40
2022-11-29T22:11:34.587Z,66.13
2022-11-29T22:14:16.914Z,58.33
2022-11-29T22:16:48.137Z,63.37
2022-11-29T22:19:17.781Z,65.53
2022-11-29T22:21:50.060Z,63.17
2022-11-29T22:24:20.720Z,64.87
2022-11-29T22:26:50.001Z,74.83
2022-11-29T22:29:30.940Z,61.33
2022-11-29T22:32:05.908Z,69.97
2022-11-29T22:34:34.156Z,76.60
2022-11-29T22:37:03.402Z,75.50
2022-11-29T22:39:31.520Z,72.13
2022-11-29T22:41:59.458Z,69.63
2022-11-29T22:44:27.433Z,73.63
2022-11-29T22:46:55.514Z,62.43
2022-11-29T22:49:23.552Z,64.90
2022-11-29T22:51:52.277Z,63.87
2022-11-29T22:54:21.819Z,61.33
2022-11-29T22:56:49.867Z,61.80
2022-11-29T22:59:21.394Z,62.17
2022-11-29T23:01:49.378Z,57.47
2022-11-29T23:04:17.358Z,65.37
2022-11-29T23:06:46.817Z,64.03
2022-11-29T23:09:16.880Z,66.47
2022-11-29T23:12:00.110Z,67.50
2022-11-29T23:14:37.061Z,68.00
2022-11-29T23:17:05.000Z,62.67
2022-11-29T23:19:32.937Z,61.90
2022-11-29T23:22:00.854Z,60.87
2022-11-29T23:24:28.726Z,68.50
2022-11-29T23:26:58.029Z,66.10
2022-11-29T23:29:25.901Z,62.23
2022-11-29T23:31:53.890Z,62.57
2022-11-29T23:34:22.573Z,58.03
2022-11-29T23:36:53.131Z,65.53
2022-11-29T23:39:21.782Z,67.37
2022-11-29T23:41:49.754Z,64.33
2022-11-29T23:44:18.985Z,73.30
2022-11-29T23:46:46.929Z,69.53
2022-11-29T23:49:14.796Z,62.57
2022-11-29T23:51:42.719Z,52.30
2022-11-29T23:54:10.712Z,72.40
2022-11-29T23:56:38.602Z,66.07
2022-11-29T23:59:06.960Z,72.70
